sensor_id;sensor_type;location;lat;lon;timestamp;P1;durP1;ratioP1;P2;durP2;ratioP2
42132;SDS011;70517;48.192;16.278;2024-01-25T00:00:58;2.30;;;0.70;;
42132;SDS011;70517;48.192;16.278;2024-01-25T00:03:58;1.67;;;0.53;;
42132;SDS011;70517;48.192;16.278;2024-01-25T00:06:58;2.83;;;0.93;;
42132;SDS011;70517;48.192;16.278;2024-01-25T00:09:58;2.00;;;0.70;;
42132;SDS011;70517;48.192;16.278;2024-01-25T00:12:59;1.53;;;0.60;;
42132;SDS011;70517;48.192;16.278;2024-01-25T00:15:59;1.77;;;0.60;;
42132;SDS011;70517;48.192;16.278;2024-01-25T00:18:59;2.33;;;0.70;;
42132;SDS011;70517;48.192;16.278;2024-01-25T00:22:00;3.05;;;0.80;;
42132;SDS011;70517;48.192;16.278;2024-01-25T00:25:01;2.27;;;0.60;;
42132;SDS011;70517;48.192;16.278;2024-01-25T00:28:01;2.33;;;0.50;;
42132;SDS011;70517;48.192;16.278;2024-01-25T00:31:01;1.97;;;0.70;;
42132;SDS011;70517;48.192;16.278;2024-01-25T00:34:02;0.97;;;0.60;;
42132;SDS011;70517;48.192;16.278;2024-01-25T00:37:02;1.93;;;0.50;;
42132;SDS011;70517;48.192;16.278;2024-01-25T00:40:02;1.07;;;0.57;;
42132;SDS011;70517;48.192;16.278;2024-01-25T00:43:03;1.58;;;0.57;;
42132;SDS011;70517;48.192;16.278;2024-01-25T00:46:03;1.97;;;0.70;;
42132;SDS011;70517;48.192;16.278;2024-01-25T00:49:04;2.17;;;0.80;;
42132;SDS011;70517;48.192;16.278;2024-01-25T00:52:04;1.97;;;0.60;;
42132;SDS011;70517;48.192;16.278;2024-01-25T00:55:05;2.27;;;0.80;;
42132;SDS011;70517;48.192;16.278;2024-01-25T00:58:05;3.25;;;0.70;;
42132;SDS011;70517;48.192;16.278;2024-01-25T01:01:06;3.03;;;1.03;;
42132;SDS011;70517;48.192;16.278;2024-01-25T01:04:06;2.80;;;1.10;;
42132;SDS011;70517;48.192;16.278;2024-01-25T01:07:07;1.87;;;0.97;;
42132;SDS011;70517;48.192;16.278;2024-01-25T01:10:08;3.75;;;1.00;;
42132;SDS011;70517;48.192;16.278;2024-01-25T01:13:08;2.00;;;0.98;;
42132;SDS011;70517;48.192;16.278;2024-01-25T01:16:09;1.47;;;0.80;;
42132;SDS011;70517;48.192;16.278;2024-01-25T01:19:09;1.77;;;0.93;;
42132;SDS011;70517;48.192;16.278;2024-01-25T01:22:09;1.70;;;0.70;;
42132;SDS011;70517;48.192;16.278;2024-01-25T01:25:09;2.03;;;0.57;;
42132;SDS011;70517;48.192;16.278;2024-01-25T01:28:10;1.87;;;0.83;;
42132;SDS011;70517;48.192;16.278;2024-01-25T01:31:10;3.00;;;1.00;;
42132;SDS011;70517;48.192;16.278;2024-01-25T01:34:11;2.27;;;0.80;;
42132;SDS011;70517;48.192;16.278;2024-01-25T01:37:12;2.38;;;0.80;;
42132;SDS011;70517;48.192;16.278;2024-01-25T01:40:13;2.63;;;0.80;;
42132;SDS011;70517;48.192;16.278;2024-01-25T01:43:19;2.33;;;0.73;;
42132;SDS011;70517;48.192;16.278;2024-01-25T01:49:23;1.30;;;0.77;;
42132;SDS011;70517;48.192;16.278;2024-01-25T01:52:23;3.00;;;0.73;;
42132;SDS011;70517;48.192;16.278;2024-01-25T01:55:23;1.17;;;0.53;;
42132;SDS011;70517;48.192;16.278;2024-01-25T01:58:24;1.97;;;0.70;;
42132;SDS011;70517;48.192;16.278;2024-01-25T02:01:25;2.38;;;0.70;;
42132;SDS011;70517;48.192;16.278;2024-01-25T02:04:25;1.67;;;0.70;;
42132;SDS011;70517;48.192;16.278;2024-01-25T02:07:26;3.97;;;0.83;;
42132;SDS011;70517;48.192;16.278;2024-01-25T02:10:26;2.92;;;0.75;;
42132;SDS011;70517;48.192;16.278;2024-01-25T02:13:27;1.90;;;0.43;;
42132;SDS011;70517;48.192;16.278;2024-01-25T02:16:27;1.20;;;0.70;;
42132;SDS011;70517;48.192;16.278;2024-01-25T02:19:27;1.40;;;0.60;;
42132;SDS011;70517;48.192;16.278;2024-01-25T02:22:27;2.97;;;0.60;;
42132;SDS011;70517;48.192;16.278;2024-01-25T02:25:28;2.60;;;0.73;;
42132;SDS011;70517;48.192;16.278;2024-01-25T02:28:28;2.03;;;0.60;;
42132;SDS011;70517;48.192;16.278;2024-01-25T02:31:28;2.27;;;0.63;;
42132;SDS011;70517;48.192;16.278;2024-01-25T02:34:28;4.80;;;0.90;;
42132;SDS011;70517;48.192;16.278;2024-01-25T02:37:29;2.00;;;0.80;;
42132;SDS011;70517;48.192;16.278;2024-01-25T02:40:29;1.43;;;0.70;;
42132;SDS011;70517;48.192;16.278;2024-01-25T02:43:29;3.10;;;0.70;;
42132;SDS011;70517;48.192;16.278;2024-01-25T02:46:29;2.17;;;0.60;;
42132;SDS011;70517;48.192;16.278;2024-01-25T02:49:30;1.63;;;0.50;;
42132;SDS011;70517;48.192;16.278;2024-01-25T02:52:30;1.37;;;0.53;;
42132;SDS011;70517;48.192;16.278;2024-01-25T02:55:30;1.33;;;0.50;;
42132;SDS011;70517;48.192;16.278;2024-01-25T02:58:31;1.48;;;0.60;;
42132;SDS011;70517;48.192;16.278;2024-01-25T03:01:41;2.20;;;0.60;;
42132;SDS011;70517;48.192;16.278;2024-01-25T03:04:41;2.22;;;0.60;;
42132;SDS011;70517;48.192;16.278;2024-01-25T03:07:42;2.03;;;0.60;;
42132;SDS011;70517;48.192;16.278;2024-01-25T03:10:42;2.43;;;0.60;;
42132;SDS011;70517;48.192;16.278;2024-01-25T03:13:42;1.80;;;0.60;;
42132;SDS011;70517;48.192;16.278;2024-01-25T03:16:42;2.30;;;0.83;;
42132;SDS011;70517;48.192;16.278;2024-01-25T03:19:43;3.10;;;0.75;;
42132;SDS011;70517;48.192;16.278;2024-01-25T03:22:44;1.30;;;0.60;;
42132;SDS011;70517;48.192;16.278;2024-01-25T03:25:44;2.80;;;0.63;;
42132;SDS011;70517;48.192;16.278;2024-01-25T03:28:44;2.60;;;0.60;;
42132;SDS011;70517;48.192;16.278;2024-01-25T03:31:45;1.50;;;0.60;;
42132;SDS011;70517;48.192;16.278;2024-01-25T03:34:45;1.23;;;0.47;;
42132;SDS011;70517;48.192;16.278;2024-01-25T03:37:45;3.07;;;0.60;;
42132;SDS011;70517;48.192;16.278;2024-01-25T03:40:45;1.07;;;0.70;;
42132;SDS011;70517;48.192;16.278;2024-01-25T03:43:46;2.80;;;0.70;;
42132;SDS011;70517;48.192;16.278;2024-01-25T03:46:46;1.17;;;0.50;;
42132;SDS011;70517;48.192;16.278;2024-01-25T03:49:47;2.07;;;0.40;;
42132;SDS011;70517;48.192;16.278;2024-01-25T03:52:47;2.28;;;0.60;;
42132;SDS011;70517;48.192;16.278;2024-01-25T03:55:48;1.50;;;0.33;;
42132;SDS011;70517;48.192;16.278;2024-01-25T03:58:51;2.15;;;0.60;;
42132;SDS011;70517;48.192;16.278;2024-01-25T04:01:51;1.27;;;0.30;;
42132;SDS011;70517;48.192;16.278;2024-01-25T04:04:51;1.37;;;0.50;;
42132;SDS011;70517;48.192;16.278;2024-01-25T04:07:52;1.03;;;0.60;;
42132;SDS011;70517;48.192;16.278;2024-01-25T04:10:52;2.50;;;0.50;;
42132;SDS011;70517;48.192;16.278;2024-01-25T04:13:52;2.67;;;0.53;;
42132;SDS011;70517;48.192;16.278;2024-01-25T04:16:53;1.90;;;0.53;;
42132;SDS011;70517;48.192;16.278;2024-01-25T04:19:53;0.93;;;0.40;;
42132;SDS011;70517;48.192;16.278;2024-01-25T04:22:53;1.63;;;0.57;;
42132;SDS011;70517;48.192;16.278;2024-01-25T04:25:53;2.27;;;0.50;;
42132;SDS011;70517;48.192;16.278;2024-01-25T04:28:55;2.83;;;0.80;;
42132;SDS011;70517;48.192;16.278;2024-01-25T04:31:55;4.10;;;0.90;;
42132;SDS011;70517;48.192;16.278;2024-01-25T04:34:55;2.43;;;0.80;;
42132;SDS011;70517;48.192;16.278;2024-01-25T04:37:56;1.67;;;0.60;;
42132;SDS011;70517;48.192;16.278;2024-01-25T04:40:56;1.77;;;0.80;;
42132;SDS011;70517;48.192;16.278;2024-01-25T04:43:56;2.87;;;0.60;;
42132;SDS011;70517;48.192;16.278;2024-01-25T04:46:57;1.17;;;0.57;;
42132;SDS011;70517;48.192;16.278;2024-01-25T04:49:57;2.60;;;0.73;;
42132;SDS011;70517;48.192;16.278;2024-01-25T04:52:57;1.03;;;0.50;;
42132;SDS011;70517;48.192;16.278;2024-01-25T04:55:58;2.00;;;0.80;;
42132;SDS011;70517;48.192;16.278;2024-01-25T04:58:59;3.15;;;1.08;;
42132;SDS011;70517;48.192;16.278;2024-01-25T05:02:00;2.83;;;1.33;;
42132;SDS011;70517;48.192;16.278;2024-01-25T05:05:00;3.50;;;1.10;;
42132;SDS011;70517;48.192;16.278;2024-01-25T05:08:00;3.00;;;1.30;;
42132;SDS011;70517;48.192;16.278;2024-01-25T05:11:01;4.57;;;1.33;;
42132;SDS011;70517;48.192;16.278;2024-01-25T05:14:01;3.37;;;1.40;;
42132;SDS011;70517;48.192;16.278;2024-01-25T05:17:01;3.57;;;1.13;;
42132;SDS011;70517;48.192;16.278;2024-01-25T05:20:01;1.43;;;0.90;;
42132;SDS011;70517;48.192;16.278;2024-01-25T05:23:03;3.25;;;1.10;;
42132;SDS011;70517;48.192;16.278;2024-01-25T05:26:05;3.30;;;1.05;;
42132;SDS011;70517;48.192;16.278;2024-01-25T05:29:05;4.80;;;1.13;;
42132;SDS011;70517;48.192;16.278;2024-01-25T05:32:05;3.47;;;1.17;;
42132;SDS011;70517;48.192;16.278;2024-01-25T05:35:06;6.73;;;1.50;;
42132;SDS011;70517;48.192;16.278;2024-01-25T05:38:07;3.33;;;1.00;;
42132;SDS011;70517;48.192;16.278;2024-01-25T05:41:07;3.23;;;1.30;;
42132;SDS011;70517;48.192;16.278;2024-01-25T05:44:07;3.83;;;0.97;;
42132;SDS011;70517;48.192;16.278;2024-01-25T05:47:07;2.47;;;1.17;;
42132;SDS011;70517;48.192;16.278;2024-01-25T05:50:08;3.80;;;1.40;;
42132;SDS011;70517;48.192;16.278;2024-01-25T05:53:08;3.33;;;1.30;;
42132;SDS011;70517;48.192;16.278;2024-01-25T05:56:09;3.50;;;1.40;;
42132;SDS011;70517;48.192;16.278;2024-01-25T05:59:09;2.37;;;1.00;;
42132;SDS011;70517;48.192;16.278;2024-01-25T06:02:09;3.63;;;1.03;;
42132;SDS011;70517;48.192;16.278;2024-01-25T06:05:09;2.87;;;1.20;;
42132;SDS011;70517;48.192;16.278;2024-01-25T06:08:10;4.07;;;1.17;;
42132;SDS011;70517;48.192;16.278;2024-01-25T06:11:10;2.07;;;0.90;;
42132;SDS011;70517;48.192;16.278;2024-01-25T06:14:11;3.43;;;1.00;;
42132;SDS011;70517;48.192;16.278;2024-01-25T06:17:11;2.25;;;0.90;;
42132;SDS011;70517;48.192;16.278;2024-01-25T06:20:12;3.17;;;0.90;;
42132;SDS011;70517;48.192;16.278;2024-01-25T06:23:12;3.30;;;0.90;;
42132;SDS011;70517;48.192;16.278;2024-01-25T06:26:12;2.73;;;0.97;;
42132;SDS011;70517;48.192;16.278;2024-01-25T06:29:12;1.73;;;0.80;;
42132;SDS011;70517;48.192;16.278;2024-01-25T06:32:13;1.47;;;0.60;;
42132;SDS011;70517;48.192;16.278;2024-01-25T06:35:13;2.17;;;0.70;;
42132;SDS011;70517;48.192;16.278;2024-01-25T06:38:14;1.55;;;0.60;;
42132;SDS011;70517;48.192;16.278;2024-01-25T06:41:14;3.93;;;0.70;;
42132;SDS011;70517;48.192;16.278;2024-01-25T06:44:17;2.38;;;0.82;;
42132;SDS011;70517;48.192;16.278;2024-01-25T06:47:18;2.23;;;0.67;;
42132;SDS011;70517;48.192;16.278;2024-01-25T06:50:18;3.33;;;0.80;;
42132;SDS011;70517;48.192;16.278;2024-01-25T06:53:19;2.90;;;0.83;;
42132;SDS011;70517;48.192;16.278;2024-01-25T06:56:19;1.73;;;0.80;;
42132;SDS011;70517;48.192;16.278;2024-01-25T06:59:19;2.63;;;0.73;;
42132;SDS011;70517;48.192;16.278;2024-01-25T07:02:19;1.60;;;0.70;;
42132;SDS011;70517;48.192;16.278;2024-01-25T07:05:20;2.17;;;0.80;;
42132;SDS011;70517;48.192;16.278;2024-01-25T07:08:20;1.23;;;0.67;;
42132;SDS011;70517;48.192;16.278;2024-01-25T07:11:21;3.33;;;0.70;;
42132;SDS011;70517;48.192;16.278;2024-01-25T07:14:21;3.03;;;0.70;;
42132;SDS011;70517;48.192;16.278;2024-01-25T07:17:22;1.27;;;0.57;;
42132;SDS011;70517;48.192;16.278;2024-01-25T07:20:22;3.13;;;0.90;;
42132;SDS011;70517;48.192;16.278;2024-01-25T07:23:22;2.80;;;0.60;;
42132;SDS011;70517;48.192;16.278;2024-01-25T07:26:22;2.73;;;0.73;;
42132;SDS011;70517;48.192;16.278;2024-01-25T07:29:23;1.83;;;0.57;;
42132;SDS011;70517;48.192;16.278;2024-01-25T07:32:23;1.63;;;0.60;;
42132;SDS011;70517;48.192;16.278;2024-01-25T07:35:27;2.97;;;0.63;;
42132;SDS011;70517;48.192;16.278;2024-01-25T07:38:27;1.00;;;0.50;;
42132;SDS011;70517;48.192;16.278;2024-01-25T07:41:27;2.83;;;0.90;;
42132;SDS011;70517;48.192;16.278;2024-01-25T07:44:27;3.53;;;0.83;;
42132;SDS011;70517;48.192;16.278;2024-01-25T07:47:28;0.80;;;0.60;;
42132;SDS011;70517;48.192;16.278;2024-01-25T07:50:28;3.77;;;0.77;;
42132;SDS011;70517;48.192;16.278;2024-01-25T07:53:28;2.07;;;0.70;;
42132;SDS011;70517;48.192;16.278;2024-01-25T07:56:29;2.63;;;0.90;;
42132;SDS011;70517;48.192;16.278;2024-01-25T07:59:29;1.93;;;0.77;;
42132;SDS011;70517;48.192;16.278;2024-01-25T08:02:30;1.23;;;0.60;;
42132;SDS011;70517;48.192;16.278;2024-01-25T08:05:30;1.17;;;0.50;;
42132;SDS011;70517;48.192;16.278;2024-01-25T08:08:30;1.33;;;0.63;;
42132;SDS011;70517;48.192;16.278;2024-01-25T08:11:30;2.07;;;0.60;;
42132;SDS011;70517;48.192;16.278;2024-01-25T08:14:31;1.80;;;0.83;;
42132;SDS011;70517;48.192;16.278;2024-01-25T08:17:31;1.95;;;0.65;;
42132;SDS011;70517;48.192;16.278;2024-01-25T08:20:32;2.83;;;0.87;;
42132;SDS011;70517;48.192;16.278;2024-01-25T08:23:32;2.23;;;0.70;;
42132;SDS011;70517;48.192;16.278;2024-01-25T08:26:33;4.23;;;1.00;;
42132;SDS011;70517;48.192;16.278;2024-01-25T08:29:34;2.75;;;0.98;;
42132;SDS011;70517;48.192;16.278;2024-01-25T08:32:34;2.80;;;0.60;;
42132;SDS011;70517;48.192;16.278;2024-01-25T08:35:34;3.00;;;1.10;;
42132;SDS011;70517;48.192;16.278;2024-01-25T08:38:35;1.43;;;0.60;;
42132;SDS011;70517;48.192;16.278;2024-01-25T08:41:35;2.63;;;0.53;;
42132;SDS011;70517;48.192;16.278;2024-01-25T08:44:37;3.77;;;0.60;;
42132;SDS011;70517;48.192;16.278;2024-01-25T08:47:37;1.80;;;0.63;;
42132;SDS011;70517;48.192;16.278;2024-01-25T08:50:38;1.97;;;0.73;;
42132;SDS011;70517;48.192;16.278;2024-01-25T08:53:38;1.83;;;0.60;;
42132;SDS011;70517;48.192;16.278;2024-01-25T08:56:38;3.20;;;1.00;;
42132;SDS011;70517;48.192;16.278;2024-01-25T08:59:39;2.40;;;0.90;;
42132;SDS011;70517;48.192;16.278;2024-01-25T09:02:39;2.90;;;0.93;;
42132;SDS011;70517;48.192;16.278;2024-01-25T09:05:39;1.70;;;0.60;;
42132;SDS011;70517;48.192;16.278;2024-01-25T09:08:44;2.03;;;0.75;;
42132;SDS011;70517;48.192;16.278;2024-01-25T09:11:45;1.17;;;0.70;;
42132;SDS011;70517;48.192;16.278;2024-01-25T09:14:45;4.43;;;0.83;;
42132;SDS011;70517;48.192;16.278;2024-01-25T09:17:45;3.20;;;0.77;;
42132;SDS011;70517;48.192;16.278;2024-01-25T09:20:45;3.53;;;0.70;;
42132;SDS011;70517;48.192;16.278;2024-01-25T09:23:48;3.20;;;0.65;;
42132;SDS011;70517;48.192;16.278;2024-01-25T09:26:48;2.07;;;0.80;;
42132;SDS011;70517;48.192;16.278;2024-01-25T09:29:48;2.17;;;0.60;;
42132;SDS011;70517;48.192;16.278;2024-01-25T09:32:49;1.73;;;0.60;;
42132;SDS011;70517;48.192;16.278;2024-01-25T09:35:50;2.95;;;0.75;;
42132;SDS011;70517;48.192;16.278;2024-01-25T09:38:50;4.10;;;0.67;;
42132;SDS011;70517;48.192;16.278;2024-01-25T09:41:50;1.97;;;0.80;;
42132;SDS011;70517;48.192;16.278;2024-01-25T09:44:52;1.13;;;0.60;;
42132;SDS011;70517;48.192;16.278;2024-01-25T09:47:54;3.65;;;0.90;;
42132;SDS011;70517;48.192;16.278;2024-01-25T09:50:55;2.50;;;1.03;;
42132;SDS011;70517;48.192;16.278;2024-01-25T09:53:55;3.28;;;0.90;;
42132;SDS011;70517;48.192;16.278;2024-01-25T09:56:56;1.65;;;0.73;;
42132;SDS011;70517;48.192;16.278;2024-01-25T09:59:57;1.52;;;0.70;;
42132;SDS011;70517;48.192;16.278;2024-01-25T10:02:58;2.57;;;0.93;;
42132;SDS011;70517;48.192;16.278;2024-01-25T10:05:59;1.87;;;0.73;;
42132;SDS011;70517;48.192;16.278;2024-01-25T10:08:59;2.42;;;0.80;;
42132;SDS011;70517;48.192;16.278;2024-01-25T10:11:59;2.90;;;0.70;;
42132;SDS011;70517;48.192;16.278;2024-01-25T10:14:59;1.57;;;0.83;;
42132;SDS011;70517;48.192;16.278;2024-01-25T10:18:00;1.33;;;0.90;;
42132;SDS011;70517;48.192;16.278;2024-01-25T10:21:00;3.60;;;1.00;;
42132;SDS011;70517;48.192;16.278;2024-01-25T10:24:00;2.77;;;0.93;;
42132;SDS011;70517;48.192;16.278;2024-01-25T10:27:00;1.70;;;0.97;;
42132;SDS011;70517;48.192;16.278;2024-01-25T10:30:01;4.07;;;1.20;;
42132;SDS011;70517;48.192;16.278;2024-01-25T10:33:01;1.93;;;0.93;;
42132;SDS011;70517;48.192;16.278;2024-01-25T10:36:02;2.63;;;1.15;;
42132;SDS011;70517;48.192;16.278;2024-01-25T10:39:03;4.60;;;1.42;;
42132;SDS011;70517;48.192;16.278;2024-01-25T10:42:05;4.35;;;1.23;;
42132;SDS011;70517;48.192;16.278;2024-01-25T10:45:05;3.60;;;1.57;;
42132;SDS011;70517;48.192;16.278;2024-01-25T10:48:07;3.70;;;0.95;;
42132;SDS011;70517;48.192;16.278;2024-01-25T10:51:07;2.53;;;0.90;;
42132;SDS011;70517;48.192;16.278;2024-01-25T10:54:09;3.22;;;1.20;;
42132;SDS011;70517;48.192;16.278;2024-01-25T10:57:11;2.33;;;0.93;;
42132;SDS011;70517;48.192;16.278;2024-01-25T11:00:12;4.22;;;0.95;;
42132;SDS011;70517;48.192;16.278;2024-01-25T11:03:12;2.95;;;1.00;;
42132;SDS011;70517;48.192;16.278;2024-01-25T11:06:13;1.40;;;0.87;;
42132;SDS011;70517;48.192;16.278;2024-01-25T11:09:17;3.43;;;0.97;;
42132;SDS011;70517;48.192;16.278;2024-01-25T11:12:19;2.33;;;1.20;;
42132;SDS011;70517;48.192;16.278;2024-01-25T11:15:20;5.90;;;1.67;;
42132;SDS011;70517;48.192;16.278;2024-01-25T11:18:24;2.10;;;1.23;;
42132;SDS011;70517;48.192;16.278;2024-01-25T11:21:25;4.78;;;1.42;;
42132;SDS011;70517;48.192;16.278;2024-01-25T11:24:25;4.10;;;1.67;;
42132;SDS011;70517;48.192;16.278;2024-01-25T11:27:30;3.38;;;1.38;;
42132;SDS011;70517;48.192;16.278;2024-01-25T11:30:31;5.07;;;1.53;;
42132;SDS011;70517;48.192;16.278;2024-01-25T11:33:32;5.13;;;1.17;;
42132;SDS011;70517;48.192;16.278;2024-01-25T11:36:32;2.33;;;1.03;;
42132;SDS011;70517;48.192;16.278;2024-01-25T11:39:33;3.50;;;1.30;;
42132;SDS011;70517;48.192;16.278;2024-01-25T11:42:33;2.00;;;0.90;;
42132;SDS011;70517;48.192;16.278;2024-01-25T11:45:35;1.60;;;0.90;;
42132;SDS011;70517;48.192;16.278;2024-01-25T11:48:42;1.75;;;0.75;;
42132;SDS011;70517;48.192;16.278;2024-01-25T11:51:42;2.03;;;0.70;;
42132;SDS011;70517;48.192;16.278;2024-01-25T11:54:42;1.40;;;0.60;;
42132;SDS011;70517;48.192;16.278;2024-01-25T11:57:43;2.63;;;0.80;;
42132;SDS011;70517;48.192;16.278;2024-01-25T12:00:43;2.67;;;0.83;;
42132;SDS011;70517;48.192;16.278;2024-01-25T12:03:43;2.50;;;1.00;;
42132;SDS011;70517;48.192;16.278;2024-01-25T12:06:44;2.10;;;0.80;;
42132;SDS011;70517;48.192;16.278;2024-01-25T12:09:44;2.93;;;1.33;;
42132;SDS011;70517;48.192;16.278;2024-01-25T12:12:44;2.43;;;1.10;;
42132;SDS011;70517;48.192;16.278;2024-01-25T12:15:45;2.43;;;0.90;;
42132;SDS011;70517;48.192;16.278;2024-01-25T12:18:45;3.28;;;1.10;;
42132;SDS011;70517;48.192;16.278;2024-01-25T12:21:46;4.17;;;1.13;;
42132;SDS011;70517;48.192;16.278;2024-01-25T12:24:46;1.55;;;0.90;;
42132;SDS011;70517;48.192;16.278;2024-01-25T12:27:48;4.50;;;1.05;;
42132;SDS011;70517;48.192;16.278;2024-01-25T12:30:50;2.70;;;0.90;;
42132;SDS011;70517;48.192;16.278;2024-01-25T12:33:50;3.13;;;1.10;;
42132;SDS011;70517;48.192;16.278;2024-01-25T12:36:50;2.43;;;0.90;;
42132;SDS011;70517;48.192;16.278;2024-01-25T12:39:53;2.67;;;0.90;;
42132;SDS011;70517;48.192;16.278;2024-01-25T12:42:53;1.40;;;0.70;;
42132;SDS011;70517;48.192;16.278;2024-01-25T12:45:53;3.20;;;1.00;;
42132;SDS011;70517;48.192;16.278;2024-01-25T12:48:54;1.20;;;0.83;;
42132;SDS011;70517;48.192;16.278;2024-01-25T12:51:55;2.40;;;0.63;;
42132;SDS011;70517;48.192;16.278;2024-01-25T12:54:55;1.57;;;0.90;;
42132;SDS011;70517;48.192;16.278;2024-01-25T12:57:56;1.00;;;0.65;;
42132;SDS011;70517;48.192;16.278;2024-01-25T13:00:57;2.85;;;1.17;;
42132;SDS011;70517;48.192;16.278;2024-01-25T13:03:57;2.50;;;0.93;;
42132;SDS011;70517;48.192;16.278;2024-01-25T13:06:57;2.87;;;0.80;;
42132;SDS011;70517;48.192;16.278;2024-01-25T13:09:58;2.73;;;1.10;;
42132;SDS011;70517;48.192;16.278;2024-01-25T13:12:58;2.87;;;0.90;;
42132;SDS011;70517;48.192;16.278;2024-01-25T13:15:58;3.17;;;0.90;;
42132;SDS011;70517;48.192;16.278;2024-01-25T13:19:00;2.10;;;0.70;;
42132;SDS011;70517;48.192;16.278;2024-01-25T13:22:00;3.97;;;1.00;;
42132;SDS011;70517;48.192;16.278;2024-01-25T13:25:00;1.97;;;0.67;;
42132;SDS011;70517;48.192;16.278;2024-01-25T13:28:01;2.07;;;0.90;;
42132;SDS011;70517;48.192;16.278;2024-01-25T13:31:01;2.90;;;0.90;;
42132;SDS011;70517;48.192;16.278;2024-01-25T13:34:02;2.97;;;0.90;;
42132;SDS011;70517;48.192;16.278;2024-01-25T13:37:02;3.80;;;0.87;;
42132;SDS011;70517;48.192;16.278;2024-01-25T13:40:02;2.47;;;0.90;;
42132;SDS011;70517;48.192;16.278;2024-01-25T13:46:04;2.15;;;0.65;;
42132;SDS011;70517;48.192;16.278;2024-01-25T13:49:04;2.50;;;0.83;;
42132;SDS011;70517;48.192;16.278;2024-01-25T13:52:04;2.73;;;0.70;;
42132;SDS011;70517;48.192;16.278;2024-01-25T13:55:05;3.37;;;1.10;;
42132;SDS011;70517;48.192;16.278;2024-01-25T13:58:05;0.90;;;0.50;;
42132;SDS011;70517;48.192;16.278;2024-01-25T14:01:06;1.83;;;0.80;;
42132;SDS011;70517;48.192;16.278;2024-01-25T14:04:06;2.50;;;0.83;;
42132;SDS011;70517;48.192;16.278;2024-01-25T14:07:07;2.42;;;0.70;;
42132;SDS011;70517;48.192;16.278;2024-01-25T14:10:07;2.77;;;1.03;;
42132;SDS011;70517;48.192;16.278;2024-01-25T14:13:08;4.40;;;0.77;;
42132;SDS011;70517;48.192;16.278;2024-01-25T14:16:08;2.87;;;1.00;;
42132;SDS011;70517;48.192;16.278;2024-01-25T14:19:09;3.72;;;0.95;;
42132;SDS011;70517;48.192;16.278;2024-01-25T14:22:09;2.30;;;0.87;;
42132;SDS011;70517;48.192;16.278;2024-01-25T14:25:11;2.25;;;0.70;;
42132;SDS011;70517;48.192;16.278;2024-01-25T14:28:12;2.60;;;0.70;;
42132;SDS011;70517;48.192;16.278;2024-01-25T14:31:12;1.60;;;1.13;;
42132;SDS011;70517;48.192;16.278;2024-01-25T14:34:12;1.63;;;1.00;;
42132;SDS011;70517;48.192;16.278;2024-01-25T14:37:12;2.60;;;1.10;;
42132;SDS011;70517;48.192;16.278;2024-01-25T14:40:13;1.90;;;0.80;;
42132;SDS011;70517;48.192;16.278;2024-01-25T14:43:13;3.43;;;0.80;;
42132;SDS011;70517;48.192;16.278;2024-01-25T14:46:13;2.67;;;0.67;;
42132;SDS011;70517;48.192;16.278;2024-01-25T14:49:14;3.30;;;0.87;;
42132;SDS011;70517;48.192;16.278;2024-01-25T14:52:15;1.75;;;0.68;;
42132;SDS011;70517;48.192;16.278;2024-01-25T14:55:15;3.20;;;0.67;;
42132;SDS011;70517;48.192;16.278;2024-01-25T14:58:15;2.67;;;0.77;;
42132;SDS011;70517;48.192;16.278;2024-01-25T15:01:22;3.50;;;0.82;;
42132;SDS011;70517;48.192;16.278;2024-01-25T15:04:27;3.35;;;0.80;;
42132;SDS011;70517;48.192;16.278;2024-01-25T15:07:29;3.75;;;1.20;;
42132;SDS011;70517;48.192;16.278;2024-01-25T15:10:29;3.60;;;0.83;;
42132;SDS011;70517;48.192;16.278;2024-01-25T15:13:31;2.40;;;0.70;;
42132;SDS011;70517;48.192;16.278;2024-01-25T15:16:31;1.80;;;0.87;;
42132;SDS011;70517;48.192;16.278;2024-01-25T15:19:32;2.40;;;0.70;;
42132;SDS011;70517;48.192;16.278;2024-01-25T15:22:32;1.90;;;0.83;;
42132;SDS011;70517;48.192;16.278;2024-01-25T15:25:32;4.10;;;1.20;;
42132;SDS011;70517;48.192;16.278;2024-01-25T15:28:32;1.33;;;0.70;;
42132;SDS011;70517;48.192;16.278;2024-01-25T15:31:34;2.45;;;0.77;;
42132;SDS011;70517;48.192;16.278;2024-01-25T15:34:34;2.60;;;0.70;;
42132;SDS011;70517;48.192;16.278;2024-01-25T15:37:35;2.57;;;1.00;;
42132;SDS011;70517;48.192;16.278;2024-01-25T15:40:37;2.53;;;0.73;;
42132;SDS011;70517;48.192;16.278;2024-01-25T15:43:38;2.00;;;0.90;;
42132;SDS011;70517;48.192;16.278;2024-01-25T15:46:38;2.88;;;0.77;;
42132;SDS011;70517;48.192;16.278;2024-01-25T15:49:39;2.43;;;0.60;;
42132;SDS011;70517;48.192;16.278;2024-01-25T15:52:39;3.03;;;0.80;;
42132;SDS011;70517;48.192;16.278;2024-01-25T15:55:39;4.13;;;0.93;;
42132;SDS011;70517;48.192;16.278;2024-01-25T15:58:40;1.70;;;0.67;;
42132;SDS011;70517;48.192;16.278;2024-01-25T16:01:40;2.60;;;0.80;;
42132;SDS011;70517;48.192;16.278;2024-01-25T16:04:41;1.75;;;0.93;;
42132;SDS011;70517;48.192;16.278;2024-01-25T16:07:42;2.10;;;0.80;;
42132;SDS011;70517;48.192;16.278;2024-01-25T16:10:42;2.63;;;0.70;;
42132;SDS011;70517;48.192;16.278;2024-01-25T16:13:43;1.02;;;0.68;;
42132;SDS011;70517;48.192;16.278;2024-01-25T16:16:43;2.17;;;0.83;;
42132;SDS011;70517;48.192;16.278;2024-01-25T16:19:44;3.03;;;0.80;;
42132;SDS011;70517;48.192;16.278;2024-01-25T16:22:44;1.73;;;0.50;;
42132;SDS011;70517;48.192;16.278;2024-01-25T16:25:44;1.27;;;0.50;;
42132;SDS011;70517;48.192;16.278;2024-01-25T16:28:44;2.67;;;0.80;;
42132;SDS011;70517;48.192;16.278;2024-01-25T16:31:45;2.97;;;0.87;;
42132;SDS011;70517;48.192;16.278;2024-01-25T16:34:45;2.42;;;0.68;;
42132;SDS011;70517;48.192;16.278;2024-01-25T16:37:46;2.43;;;0.67;;
42132;SDS011;70517;48.192;16.278;2024-01-25T16:40:46;1.50;;;0.70;;
42132;SDS011;70517;48.192;16.278;2024-01-25T16:43:46;2.87;;;0.73;;
42132;SDS011;70517;48.192;16.278;2024-01-25T16:46:46;1.33;;;0.60;;
42132;SDS011;70517;48.192;16.278;2024-01-25T16:49:47;2.73;;;0.60;;
42132;SDS011;70517;48.192;16.278;2024-01-25T16:52:47;2.30;;;0.80;;
42132;SDS011;70517;48.192;16.278;2024-01-25T16:55:50;1.48;;;0.70;;
42132;SDS011;70517;48.192;16.278;2024-01-25T16:58:50;2.45;;;0.55;;
42132;SDS011;70517;48.192;16.278;2024-01-25T17:01:50;2.43;;;0.60;;
42132;SDS011;70517;48.192;16.278;2024-01-25T17:04:50;1.20;;;0.50;;
42132;SDS011;70517;48.192;16.278;2024-01-25T17:07:51;1.73;;;0.60;;
42132;SDS011;70517;48.192;16.278;2024-01-25T17:10:52;1.65;;;0.60;;
42132;SDS011;70517;48.192;16.278;2024-01-25T17:13:52;1.90;;;0.60;;
42132;SDS011;70517;48.192;16.278;2024-01-25T17:16:53;1.95;;;0.55;;
42132;SDS011;70517;48.192;16.278;2024-01-25T17:19:54;1.77;;;0.60;;
42132;SDS011;70517;48.192;16.278;2024-01-25T17:22:54;3.33;;;1.00;;
42132;SDS011;70517;48.192;16.278;2024-01-25T17:25:57;3.03;;;0.82;;
42132;SDS011;70517;48.192;16.278;2024-01-25T17:28:57;0.90;;;0.50;;
42132;SDS011;70517;48.192;16.278;2024-01-25T17:31:57;1.30;;;0.73;;
42132;SDS011;70517;48.192;16.278;2024-01-25T17:34:57;3.07;;;0.50;;
42132;SDS011;70517;48.192;16.278;2024-01-25T17:37:58;2.17;;;0.50;;
42132;SDS011;70517;48.192;16.278;2024-01-25T17:40:58;4.93;;;0.90;;
42132;SDS011;70517;48.192;16.278;2024-01-25T17:43:58;0.93;;;0.50;;
42132;SDS011;70517;48.192;16.278;2024-01-25T17:46:59;2.33;;;0.70;;
42132;SDS011;70517;48.192;16.278;2024-01-25T17:49:59;2.63;;;0.67;;
42132;SDS011;70517;48.192;16.278;2024-01-25T17:53:00;1.73;;;0.70;;
42132;SDS011;70517;48.192;16.278;2024-01-25T17:56:00;1.17;;;0.52;;